sensor_id;sensor_type;location;lat;lon;timestamp;P1;durP1;ratioP1;P2;durP2;ratioP2
12798;SDS011;19250;42.646;26.980;2023-01-28T00:00:37;2.58;;;2.38;;
12798;SDS011;19250;42.646;26.980;2023-01-28T00:03:05;3.00;;;2.70;;
12798;SDS011;19250;42.646;26.980;2023-01-28T00:05:32;1.92;;;1.70;;
12798;SDS011;19250;42.646;26.980;2023-01-28T00:07:59;2.20;;;2.00;;
12798;SDS011;19250;42.646;26.980;2023-01-28T00:10:26;4.13;;;3.33;;
12798;SDS011;19250;42.646;26.980;2023-01-28T00:12:53;8.00;;;6.20;;
12798;SDS011;19250;42.646;26.980;2023-01-28T00:15:20;6.65;;;5.47;;
12798;SDS011;19250;42.646;26.980;2023-01-28T00:17:51;6.05;;;4.45;;
12798;SDS011;19250;42.646;26.980;2023-01-28T00:20:18;2.85;;;2.50;;
12798;SDS011;19250;42.646;26.980;2023-01-28T00:22:45;5.88;;;5.13;;
12798;SDS011;19250;42.646;26.980;2023-01-28T00:25:14;2.55;;;2.20;;
12798;SDS011;19250;42.646;26.980;2023-01-28T00:27:41;3.47;;;2.45;;
12798;SDS011;19250;42.646;26.980;2023-01-28T00:30:10;2.55;;;2.28;;
12798;SDS011;19250;42.646;26.980;2023-01-28T00:32:37;3.08;;;2.30;;
12798;SDS011;19250;42.646;26.980;2023-01-28T00:35:07;2.92;;;2.38;;
12798;SDS011;19250;42.646;26.980;2023-01-28T00:37:34;3.30;;;2.38;;
12798;SDS011;19250;42.646;26.980;2023-01-28T00:40:02;3.78;;;2.30;;
12798;SDS011;19250;42.646;26.980;2023-01-28T00:42:30;4.45;;;2.60;;
12798;SDS011;19250;42.646;26.980;2023-01-28T00:44:57;3.78;;;3.28;;
12798;SDS011;19250;42.646;26.980;2023-01-28T00:47:24;3.10;;;2.80;;
12798;SDS011;19250;42.646;26.980;2023-01-28T00:49:51;2.92;;;2.50;;
12798;SDS011;19250;42.646;26.980;2023-01-28T00:52:21;2.60;;;2.17;;
12798;SDS011;19250;42.646;26.980;2023-01-28T00:54:48;2.40;;;2.20;;
12798;SDS011;19250;42.646;26.980;2023-01-28T00:57:15;2.40;;;2.20;;
12798;SDS011;19250;42.646;26.980;2023-01-28T00:59:42;2.80;;;2.60;;
12798;SDS011;19250;42.646;26.980;2023-01-28T01:02:09;4.15;;;3.20;;
12798;SDS011;19250;42.646;26.980;2023-01-28T01:04:39;3.63;;;2.78;;
12798;SDS011;19250;42.646;26.980;2023-01-28T01:07:21;3.50;;;2.60;;
12798;SDS011;19250;42.646;26.980;2023-01-28T01:09:59;2.92;;;2.47;;
12798;SDS011;19250;42.646;26.980;2023-01-28T01:12:26;2.05;;;1.60;;
12798;SDS011;19250;42.646;26.980;2023-01-28T01:14:54;2.20;;;2.00;;
12798;SDS011;19250;42.646;26.980;2023-01-28T01:17:21;2.17;;;1.65;;
12798;SDS011;19250;42.646;26.980;2023-01-28T01:19:48;3.40;;;2.80;;
12798;SDS011;19250;42.646;26.980;2023-01-28T01:22:15;2.58;;;2.20;;
12798;SDS011;19250;42.646;26.980;2023-01-28T01:24:44;2.50;;;2.22;;
12798;SDS011;19250;42.646;26.980;2023-01-28T01:27:13;2.70;;;2.50;;
12798;SDS011;19250;42.646;26.980;2023-01-28T01:29:40;2.70;;;2.50;;
12798;SDS011;19250;42.646;26.980;2023-01-28T01:32:07;2.70;;;2.50;;
12798;SDS011;19250;42.646;26.980;2023-01-28T01:34:34;2.47;;;2.28;;
12798;SDS011;19250;42.646;26.980;2023-01-28T01:37:02;2.90;;;2.55;;
12798;SDS011;19250;42.646;26.980;2023-01-28T01:39:30;3.60;;;3.20;;
12798;SDS011;19250;42.646;26.980;2023-01-28T01:41:59;3.80;;;3.35;;
12798;SDS011;19250;42.646;26.980;2023-01-28T01:47:19;3.40;;;3.10;;
12798;SDS011;19250;42.646;26.980;2023-01-28T01:49:50;2.83;;;2.63;;
12798;SDS011;19250;42.646;26.980;2023-01-28T01:52:18;3.08;;;2.72;;
12798;SDS011;19250;42.646;26.980;2023-01-28T01:54:50;3.15;;;2.60;;
12798;SDS011;19250;42.646;26.980;2023-01-28T01:57:25;2.80;;;2.30;;
12798;SDS011;19250;42.646;26.980;2023-01-28T01:59:56;2.10;;;1.90;;
12798;SDS011;19250;42.646;26.980;2023-01-28T02:02:31;2.15;;;1.95;;
12798;SDS011;19250;42.646;26.980;2023-01-28T02:05:01;2.90;;;2.30;;
12798;SDS011;19250;42.646;26.980;2023-01-28T02:07:29;3.60;;;3.30;;
12798;SDS011;19250;42.646;26.980;2023-01-28T02:09:57;4.50;;;3.90;;
12798;SDS011;19250;42.646;26.980;2023-01-28T02:12:27;2.60;;;2.40;;
12798;SDS011;19250;42.646;26.980;2023-01-28T02:14:59;2.03;;;1.83;;
12798;SDS011;19250;42.646;26.980;2023-01-28T02:17:29;2.50;;;2.25;;
12798;SDS011;19250;42.646;26.980;2023-01-28T02:19:58;2.78;;;2.22;;
12798;SDS011;19250;42.646;26.980;2023-01-28T02:22:43;3.20;;;2.88;;
12798;SDS011;19250;42.646;26.980;2023-01-28T02:28:37;3.38;;;2.67;;
12798;SDS011;19250;42.646;26.980;2023-01-28T02:31:12;3.30;;;3.00;;
12798;SDS011;19250;42.646;26.980;2023-01-28T02:33:47;3.63;;;3.10;;
12798;SDS011;19250;42.646;26.980;2023-01-28T02:36:23;2.72;;;2.20;;
12798;SDS011;19250;42.646;26.980;2023-01-28T02:38:57;4.85;;;3.60;;
12798;SDS011;19250;42.646;26.980;2023-01-28T02:41:28;4.25;;;3.30;;
12798;SDS011;19250;42.646;26.980;2023-01-28T02:44:02;3.80;;;2.72;;
12798;SDS011;19250;42.646;26.980;2023-01-28T02:46:33;6.20;;;5.22;;
12798;SDS011;19250;42.646;26.980;2023-01-28T02:49:20;5.20;;;4.28;;
12798;SDS011;19250;42.646;26.980;2023-01-28T02:51:54;6.65;;;5.00;;
12798;SDS011;19250;42.646;26.980;2023-01-28T02:54:36;8.17;;;5.60;;
12798;SDS011;19250;42.646;26.980;2023-01-28T02:57:13;7.07;;;4.80;;
12798;SDS011;19250;42.646;26.980;2023-01-28T02:59:53;6.40;;;5.13;;
12798;SDS011;19250;42.646;26.980;2023-01-28T03:02:29;7.53;;;6.07;;
12798;SDS011;19250;42.646;26.980;2023-01-28T03:05:02;4.63;;;3.97;;
12798;SDS011;19250;42.646;26.980;2023-01-28T03:07:35;4.53;;;3.72;;
12798;SDS011;19250;42.646;26.980;2023-01-28T03:10:05;4.70;;;3.50;;
12798;SDS011;19250;42.646;26.980;2023-01-28T03:12:34;3.70;;;3.30;;
12798;SDS011;19250;42.646;26.980;2023-01-28T03:15:23;2.85;;;2.58;;
12798;SDS011;19250;42.646;26.980;2023-01-28T03:18:12;2.53;;;2.33;;
12798;SDS011;19250;42.646;26.980;2023-01-28T03:21:01;3.08;;;2.78;;
12798;SDS011;19250;42.646;26.980;2023-01-28T03:23:52;3.30;;;3.00;;
12798;SDS011;19250;42.646;26.980;2023-01-28T03:26:41;3.67;;;3.30;;
12798;SDS011;19250;42.646;26.980;2023-01-28T03:29:31;3.20;;;2.90;;
12798;SDS011;19250;42.646;26.980;2023-01-28T03:32:19;4.18;;;3.42;;
12798;SDS011;19250;42.646;26.980;2023-01-28T03:35:05;6.93;;;2.83;;
12798;SDS011;19250;42.646;26.980;2023-01-28T03:37:53;3.50;;;3.20;;
12798;SDS011;19250;42.646;26.980;2023-01-28T03:40:24;2.90;;;2.70;;
12798;SDS011;19250;42.646;26.980;2023-01-28T03:42:52;3.17;;;2.50;;
12798;SDS011;19250;42.646;26.980;2023-01-28T03:45:21;3.10;;;2.80;;
12798;SDS011;19250;42.646;26.980;2023-01-28T03:47:48;2.80;;;2.60;;
12798;SDS011;19250;42.646;26.980;2023-01-28T03:50:15;2.60;;;2.40;;
12798;SDS011;19250;42.646;26.980;2023-01-28T03:52:43;2.90;;;2.60;;
12798;SDS011;19250;42.646;26.980;2023-01-28T03:55:10;3.30;;;3.00;;
12798;SDS011;19250;42.646;26.980;2023-01-28T03:57:38;2.88;;;2.65;;
12798;SDS011;19250;42.646;26.980;2023-01-28T04:00:06;4.38;;;3.53;;
12798;SDS011;19250;42.646;26.980;2023-01-28T04:02:35;3.30;;;3.00;;
12798;SDS011;19250;42.646;26.980;2023-01-28T04:05:08;3.78;;;3.47;;
12798;SDS011;19250;42.646;26.980;2023-01-28T04:07:37;3.80;;;3.40;;
12798;SDS011;19250;42.646;26.980;2023-01-28T04:10:05;3.13;;;2.70;;
12798;SDS011;19250;42.646;26.980;2023-01-28T04:12:34;3.65;;;3.35;;
12798;SDS011;19250;42.646;26.980;2023-01-28T04:15:03;3.85;;;3.17;;
12798;SDS011;19250;42.646;26.980;2023-01-28T04:17:39;4.18;;;3.78;;
12798;SDS011;19250;42.646;26.980;2023-01-28T04:20:11;4.23;;;3.83;;
12798;SDS011;19250;42.646;26.980;2023-01-28T04:22:39;3.42;;;3.13;;
12798;SDS011;19250;42.646;26.980;2023-01-28T04:25:07;3.20;;;2.90;;
12798;SDS011;19250;42.646;26.980;2023-01-28T04:27:35;3.67;;;3.37;;
12798;SDS011;19250;42.646;26.980;2023-01-28T04:30:19;3.40;;;3.10;;
12798;SDS011;19250;42.646;26.980;2023-01-28T04:32:47;3.95;;;2.90;;
12798;SDS011;19250;42.646;26.980;2023-01-28T04:35:16;3.65;;;3.35;;
12798;SDS011;19250;42.646;26.980;2023-01-28T04:37:43;3.85;;;3.55;;
12798;SDS011;19250;42.646;26.980;2023-01-28T04:40:11;3.90;;;3.50;;
12798;SDS011;19250;42.646;26.980;2023-01-28T04:42:39;4.78;;;4.30;;
12798;SDS011;19250;42.646;26.980;2023-01-28T04:45:06;2.95;;;2.72;;
12798;SDS011;19250;42.646;26.980;2023-01-28T04:47:34;3.78;;;3.45;;
12798;SDS011;19250;42.646;26.980;2023-01-28T04:50:01;3.55;;;3.25;;
12798;SDS011;19250;42.646;26.980;2023-01-28T04:52:30;3.20;;;2.87;;
12798;SDS011;19250;42.646;26.980;2023-01-28T04:54:57;3.97;;;3.63;;
12798;SDS011;19250;42.646;26.980;2023-01-28T04:57:25;4.72;;;4.15;;
12798;SDS011;19250;42.646;26.980;2023-01-28T04:59:52;5.05;;;4.55;;
12798;SDS011;19250;42.646;26.980;2023-01-28T05:02:19;5.63;;;5.13;;
12798;SDS011;19250;42.646;26.980;2023-01-28T05:04:47;4.32;;;3.92;;
12798;SDS011;19250;42.646;26.980;2023-01-28T05:07:14;4.15;;;3.67;;
12798;SDS011;19250;42.646;26.980;2023-01-28T05:09:42;5.10;;;4.60;;
12798;SDS011;19250;42.646;26.980;2023-01-28T05:12:09;4.93;;;3.88;;
12798;SDS011;19250;42.646;26.980;2023-01-28T05:14:37;3.80;;;3.42;;
12798;SDS011;19250;42.646;26.980;2023-01-28T05:17:04;4.43;;;4.03;;
12798;SDS011;19250;42.646;26.980;2023-01-28T05:19:31;4.53;;;4.05;;
12798;SDS011;19250;42.646;26.980;2023-01-28T05:21:58;4.30;;;3.90;;
12798;SDS011;19250;42.646;26.980;2023-01-28T05:24:25;4.68;;;4.28;;
12798;SDS011;19250;42.646;26.980;2023-01-28T05:26:54;6.82;;;5.35;;
12798;SDS011;19250;42.646;26.980;2023-01-28T05:29:21;5.53;;;5.00;;
12798;SDS011;19250;42.646;26.980;2023-01-28T05:31:49;4.35;;;3.95;;
12798;SDS011;19250;42.646;26.980;2023-01-28T05:34:16;5.30;;;4.80;;
12798;SDS011;19250;42.646;26.980;2023-01-28T05:36:43;4.90;;;4.40;;
12798;SDS011;19250;42.646;26.980;2023-01-28T05:39:10;5.82;;;5.22;;
12798;SDS011;19250;42.646;26.980;2023-01-28T05:41:37;11.57;;;7.80;;
12798;SDS011;19250;42.646;26.980;2023-01-28T05:44:06;8.05;;;6.18;;
12798;SDS011;19250;42.646;26.980;2023-01-28T05:46:33;6.18;;;5.38;;
12798;SDS011;19250;42.646;26.980;2023-01-28T05:49:00;8.88;;;6.30;;
12798;SDS011;19250;42.646;26.980;2023-01-28T05:51:28;9.63;;;6.28;;
12798;SDS011;19250;42.646;26.980;2023-01-28T05:53:55;8.80;;;5.88;;
12798;SDS011;19250;42.646;26.980;2023-01-28T05:56:22;6.53;;;5.75;;
12798;SDS011;19250;42.646;26.980;2023-01-28T05:58:49;7.55;;;6.30;;
12798;SDS011;19250;42.646;26.980;2023-01-28T06:01:18;8.70;;;7.80;;
12798;SDS011;19250;42.646;26.980;2023-01-28T06:03:46;6.73;;;5.90;;
12798;SDS011;19250;42.646;26.980;2023-01-28T06:06:13;12.57;;;9.17;;
12798;SDS011;19250;42.646;26.980;2023-01-28T06:08:41;13.10;;;9.40;;
12798;SDS011;19250;42.646;26.980;2023-01-28T06:11:08;17.60;;;13.53;;
12798;SDS011;19250;42.646;26.980;2023-01-28T06:13:35;16.45;;;12.55;;
12798;SDS011;19250;42.646;26.980;2023-01-28T06:16:03;14.40;;;10.10;;
12798;SDS011;19250;42.646;26.980;2023-01-28T06:18:32;22.40;;;17.70;;
12798;SDS011;19250;42.646;26.980;2023-01-28T06:20:59;12.07;;;10.38;;
12798;SDS011;19250;42.646;26.980;2023-01-28T06:23:26;10.02;;;8.30;;
12798;SDS011;19250;42.646;26.980;2023-01-28T06:25:54;11.10;;;9.68;;
12798;SDS011;19250;42.646;26.980;2023-01-28T06:28:22;8.43;;;6.70;;
12798;SDS011;19250;42.646;26.980;2023-01-28T06:30:50;17.38;;;14.07;;
12798;SDS011;19250;42.646;26.980;2023-01-28T06:33:18;14.85;;;12.75;;
12798;SDS011;19250;42.646;26.980;2023-01-28T06:35:47;15.05;;;11.88;;
12798;SDS011;19250;42.646;26.980;2023-01-28T06:38:15;21.08;;;14.00;;
12798;SDS011;19250;42.646;26.980;2023-01-28T06:40:42;20.27;;;13.60;;
12798;SDS011;19250;42.646;26.980;2023-01-28T06:43:09;10.65;;;8.63;;
12798;SDS011;19250;42.646;26.980;2023-01-28T06:45:36;8.18;;;6.38;;
12798;SDS011;19250;42.646;26.980;2023-01-28T06:48:04;12.80;;;9.18;;
12798;SDS011;19250;42.646;26.980;2023-01-28T06:50:31;9.32;;;7.32;;
12798;SDS011;19250;42.646;26.980;2023-01-28T06:53:00;9.30;;;7.43;;
12798;SDS011;19250;42.646;26.980;2023-01-28T06:55:27;12.38;;;9.63;;
12798;SDS011;19250;42.646;26.980;2023-01-28T06:57:54;19.92;;;13.27;;
12798;SDS011;19250;42.646;26.980;2023-01-28T07:00:21;17.92;;;12.05;;
12798;SDS011;19250;42.646;26.980;2023-01-28T07:02:49;16.42;;;11.70;;
12798;SDS011;19250;42.646;26.980;2023-01-28T07:05:16;17.15;;;12.43;;
12798;SDS011;19250;42.646;26.980;2023-01-28T07:07:43;18.83;;;13.57;;
12798;SDS011;19250;42.646;26.980;2023-01-28T07:10:12;39.07;;;27.63;;
12798;SDS011;19250;42.646;26.980;2023-01-28T07:12:39;19.27;;;16.33;;
12798;SDS011;19250;42.646;26.980;2023-01-28T07:15:07;30.17;;;20.50;;
12798;SDS011;19250;42.646;26.980;2023-01-28T07:17:35;41.00;;;27.58;;
12798;SDS011;19250;42.646;26.980;2023-01-28T07:20:05;40.80;;;27.55;;
12798;SDS011;19250;42.646;26.980;2023-01-28T07:22:33;29.38;;;21.02;;
12798;SDS011;19250;42.646;26.980;2023-01-28T07:25:01;16.90;;;14.32;;
12798;SDS011;19250;42.646;26.980;2023-01-28T07:27:30;31.02;;;21.50;;
12798;SDS011;19250;42.646;26.980;2023-01-28T07:29:57;31.90;;;19.42;;
12798;SDS011;19250;42.646;26.980;2023-01-28T07:32:25;20.23;;;13.82;;
12798;SDS011;19250;42.646;26.980;2023-01-28T07:34:53;29.30;;;18.00;;
12798;SDS011;19250;42.646;26.980;2023-01-28T07:37:20;36.65;;;20.92;;
12798;SDS011;19250;42.646;26.980;2023-01-28T07:39:47;34.45;;;19.88;;
12798;SDS011;19250;42.646;26.980;2023-01-28T07:42:14;53.50;;;28.48;;
12798;SDS011;19250;42.646;26.980;2023-01-28T07:44:43;21.50;;;14.40;;
12798;SDS011;19250;42.646;26.980;2023-01-28T07:47:11;22.75;;;14.32;;
12798;SDS011;19250;42.646;26.980;2023-01-28T07:49:38;19.73;;;14.15;;
12798;SDS011;19250;42.646;26.980;2023-01-28T07:52:05;15.48;;;11.27;;
12798;SDS011;19250;42.646;26.980;2023-01-28T07:54:32;22.00;;;13.40;;
12798;SDS011;19250;42.646;26.980;2023-01-28T07:57:00;18.77;;;12.43;;
12798;SDS011;19250;42.646;26.980;2023-01-28T07:59:27;21.30;;;14.80;;
12798;SDS011;19250;42.646;26.980;2023-01-28T08:01:55;68.03;;;43.08;;
12798;SDS011;19250;42.646;26.980;2023-01-28T08:04:23;31.35;;;20.02;;
12798;SDS011;19250;42.646;26.980;2023-01-28T08:06:50;30.10;;;21.67;;
12798;SDS011;19250;42.646;26.980;2023-01-28T08:09:17;26.83;;;17.05;;
12798;SDS011;19250;42.646;26.980;2023-01-28T08:11:44;23.13;;;17.33;;
12798;SDS011;19250;42.646;26.980;2023-01-28T08:14:11;21.88;;;16.75;;
12798;SDS011;19250;42.646;26.980;2023-01-28T08:16:39;16.30;;;13.30;;
12798;SDS011;19250;42.646;26.980;2023-01-28T08:19:07;19.88;;;16.23;;
12798;SDS011;19250;42.646;26.980;2023-01-28T08:21:35;37.38;;;28.20;;
12798;SDS011;19250;42.646;26.980;2023-01-28T08:24:02;67.47;;;44.67;;
12798;SDS011;19250;42.646;26.980;2023-01-28T08:26:30;52.97;;;35.10;;
12798;SDS011;19250;42.646;26.980;2023-01-28T08:28:57;33.55;;;25.08;;
12798;SDS011;19250;42.646;26.980;2023-01-28T08:31:24;41.05;;;27.90;;
12798;SDS011;19250;42.646;26.980;2023-01-28T08:33:53;21.35;;;16.90;;
12798;SDS011;19250;42.646;26.980;2023-01-28T08:36:21;27.58;;;16.60;;
12798;SDS011;19250;42.646;26.980;2023-01-28T08:38:50;23.55;;;17.92;;
12798;SDS011;19250;42.646;26.980;2023-01-28T08:41:19;31.23;;;21.43;;
12798;SDS011;19250;42.646;26.980;2023-01-28T08:43:46;16.95;;;13.98;;
12798;SDS011;19250;42.646;26.980;2023-01-28T08:46:14;20.23;;;18.10;;
12798;SDS011;19250;42.646;26.980;2023-01-28T08:48:41;24.00;;;19.92;;
12798;SDS011;19250;42.646;26.980;2023-01-28T08:51:09;20.67;;;16.05;;
12798;SDS011;19250;42.646;26.980;2023-01-28T08:53:37;20.67;;;16.48;;
12798;SDS011;19250;42.646;26.980;2023-01-28T08:56:05;14.25;;;12.20;;
12798;SDS011;19250;42.646;26.980;2023-01-28T08:58:32;22.10;;;18.05;;
12798;SDS011;19250;42.646;26.980;2023-01-28T09:01:02;15.68;;;12.23;;
12798;SDS011;19250;42.646;26.980;2023-01-28T09:03:30;14.55;;;11.75;;
12798;SDS011;19250;42.646;26.980;2023-01-28T09:05:58;26.50;;;20.27;;
12798;SDS011;19250;42.646;26.980;2023-01-28T09:08:26;16.30;;;13.30;;
12798;SDS011;19250;42.646;26.980;2023-01-28T09:10:55;19.33;;;15.25;;
12798;SDS011;19250;42.646;26.980;2023-01-28T09:13:23;20.92;;;15.95;;
12798;SDS011;19250;42.646;26.980;2023-01-28T09:15:52;12.60;;;11.07;;
12798;SDS011;19250;42.646;26.980;2023-01-28T09:18:19;19.50;;;15.45;;
12798;SDS011;19250;42.646;26.980;2023-01-28T09:20:47;13.38;;;10.10;;
12798;SDS011;19250;42.646;26.980;2023-01-28T09:23:14;14.70;;;12.47;;
12798;SDS011;19250;42.646;26.980;2023-01-28T09:25:41;15.20;;;13.52;;
12798;SDS011;19250;42.646;26.980;2023-01-28T09:28:10;14.18;;;12.68;;
12798;SDS011;19250;42.646;26.980;2023-01-28T09:30:37;17.05;;;14.40;;
12798;SDS011;19250;42.646;26.980;2023-01-28T09:33:05;22.88;;;17.83;;
12798;SDS011;19250;42.646;26.980;2023-01-28T09:35:33;22.40;;;16.53;;
12798;SDS011;19250;42.646;26.980;2023-01-28T09:38:01;22.80;;;16.40;;
12798;SDS011;19250;42.646;26.980;2023-01-28T09:40:33;17.02;;;12.95;;
12798;SDS011;19250;42.646;26.980;2023-01-28T09:43:07;16.02;;;12.05;;
12798;SDS011;19250;42.646;26.980;2023-01-28T09:45:48;19.10;;;15.07;;
12798;SDS011;19250;42.646;26.980;2023-01-28T09:48:18;24.23;;;18.08;;
12798;SDS011;19250;42.646;26.980;2023-01-28T09:50:48;25.00;;;19.92;;
12798;SDS011;19250;42.646;26.980;2023-01-28T09:53:18;17.63;;;13.50;;
12798;SDS011;19250;42.646;26.980;2023-01-28T09:55:49;16.67;;;11.98;;
12798;SDS011;19250;42.646;26.980;2023-01-28T09:58:22;17.85;;;13.13;;
12798;SDS011;19250;42.646;26.980;2023-01-28T10:00:51;20.17;;;15.88;;
12798;SDS011;19250;42.646;26.980;2023-01-28T10:03:30;18.70;;;14.73;;
12798;SDS011;19250;42.646;26.980;2023-01-28T10:06:06;20.60;;;15.35;;
12798;SDS011;19250;42.646;26.980;2023-01-28T10:08:51;29.35;;;22.98;;
12798;SDS011;19250;42.646;26.980;2023-01-28T10:11:32;27.97;;;21.87;;
12798;SDS011;19250;42.646;26.980;2023-01-28T10:14:18;20.67;;;16.88;;
12798;SDS011;19250;42.646;26.980;2023-01-28T10:16:55;17.23;;;13.93;;
12798;SDS011;19250;42.646;26.980;2023-01-28T10:19:26;16.95;;;13.75;;
12798;SDS011;19250;42.646;26.980;2023-01-28T10:21:56;13.57;;;12.18;;
12798;SDS011;19250;42.646;26.980;2023-01-28T10:24:28;12.15;;;10.80;;
12798;SDS011;19250;42.646;26.980;2023-01-28T10:26:59;17.55;;;14.18;;
12798;SDS011;19250;42.646;26.980;2023-01-28T10:29:30;19.85;;;17.23;;
12798;SDS011;19250;42.646;26.980;2023-01-28T10:32:01;18.27;;;15.30;;
12798;SDS011;19250;42.646;26.980;2023-01-28T10:34:31;19.55;;;15.25;;
12798;SDS011;19250;42.646;26.980;2023-01-28T10:36:58;18.67;;;16.25;;
12798;SDS011;19250;42.646;26.980;2023-01-28T10:39:26;24.38;;;19.27;;
12798;SDS011;19250;42.646;26.980;2023-01-28T10:41:55;15.18;;;13.02;;
12798;SDS011;19250;42.646;26.980;2023-01-28T10:44:26;13.52;;;11.95;;
12798;SDS011;19250;42.646;26.980;2023-01-28T10:47:01;26.00;;;20.58;;
12798;SDS011;19250;42.646;26.980;2023-01-28T10:49:37;21.48;;;16.58;;
12798;SDS011;19250;42.646;26.980;2023-01-28T10:52:11;23.63;;;20.08;;
12798;SDS011;19250;42.646;26.980;2023-01-28T10:54:39;41.05;;;32.03;;
12798;SDS011;19250;42.646;26.980;2023-01-28T10:57:09;38.72;;;32.70;;
12798;SDS011;19250;42.646;26.980;2023-01-28T10:59:40;18.80;;;14.32;;
12798;SDS011;19250;42.646;26.980;2023-01-28T11:02:28;22.43;;;16.93;;
12798;SDS011;19250;42.646;26.980;2023-01-28T11:05:02;33.28;;;26.25;;
12798;SDS011;19250;42.646;26.980;2023-01-28T11:07:31;45.90;;;35.35;;
12798;SDS011;19250;42.646;26.980;2023-01-28T11:09:59;24.25;;;19.77;;
12798;SDS011;19250;42.646;26.980;2023-01-28T11:12:26;48.25;;;31.00;;
12798;SDS011;19250;42.646;26.980;2023-01-28T11:14:57;33.80;;;23.98;;
12798;SDS011;19250;42.646;26.980;2023-01-28T11:17:26;41.42;;;27.08;;
12798;SDS011;19250;42.646;26.980;2023-01-28T11:19:55;28.02;;;20.17;;
12798;SDS011;19250;42.646;26.980;2023-01-28T11:22:26;36.25;;;24.38;;
12798;SDS011;19250;42.646;26.980;2023-01-28T11:24:58;29.40;;;20.92;;
12798;SDS011;19250;42.646;26.980;2023-01-28T11:27:27;30.25;;;21.58;;
12798;SDS011;19250;42.646;26.980;2023-01-28T11:29:59;26.10;;;19.25;;
12798;SDS011;19250;42.646;26.980;2023-01-28T11:32:28;42.40;;;28.75;;
12798;SDS011;19250;42.646;26.980;2023-01-28T11:34:56;26.30;;;19.38;;
12798;SDS011;19250;42.646;26.980;2023-01-28T11:37:25;21.45;;;15.85;;
12798;SDS011;19250;42.646;26.980;2023-01-28T11:40:01;26.00;;;20.27;;
12798;SDS011;19250;42.646;26.980;2023-01-28T11:42:30;22.53;;;17.50;;
12798;SDS011;19250;42.646;26.980;2023-01-28T11:44:59;18.73;;;14.88;;
12798;SDS011;19250;42.646;26.980;2023-01-28T11:47:34;15.55;;;12.73;;
12798;SDS011;19250;42.646;26.980;2023-01-28T11:50:19;18.33;;;13.90;;
12798;SDS011;19250;42.646;26.980;2023-01-28T11:53:06;15.52;;;12.57;;
12798;SDS011;19250;42.646;26.980;2023-01-28T11:56:04;16.38;;;12.70;;
12798;SDS011;19250;42.646;26.980;2023-01-28T11:58:40;18.02;;;13.98;;
12798;SDS011;19250;42.646;26.980;2023-01-28T12:01:21;16.58;;;12.93;;
12798;SDS011;19250;42.646;26.980;2023-01-28T12:04:05;17.13;;;13.95;;
12798;SDS011;19250;42.646;26.980;2023-01-28T12:06:47;14.45;;;11.15;;
12798;SDS011;19250;42.646;26.980;2023-01-28T12:09:23;18.80;;;13.13;;
12798;SDS011;19250;42.646;26.980;2023-01-28T12:12:02;16.60;;;13.55;;
12798;SDS011;19250;42.646;26.980;2023-01-28T12:14:48;22.08;;;16.55;;
12798;SDS011;19250;42.646;26.980;2023-01-28T12:17:41;14.73;;;11.50;;
12798;SDS011;19250;42.646;26.980;2023-01-28T12:20:21;16.80;;;14.18;;
12798;SDS011;19250;42.646;26.980;2023-01-28T12:25:57;21.98;;;17.95;;
12798;SDS011;19250;42.646;26.980;2023-01-28T12:28:36;21.67;;;17.15;;
12798;SDS011;19250;42.646;26.980;2023-01-28T12:31:28;20.38;;;15.30;;
12798;SDS011;19250;42.646;26.980;2023-01-28T12:34:28;26.90;;;17.50;;
12798;SDS011;19250;42.646;26.980;2023-01-28T12:37:07;20.15;;;14.85;;
12798;SDS011;19250;42.646;26.980;2023-01-28T12:39:45;18.90;;;14.10;;
12798;SDS011;19250;42.646;26.980;2023-01-28T12:42:26;17.63;;;13.98;;
12798;SDS011;19250;42.646;26.980;2023-01-28T12:44:59;22.23;;;16.05;;
12798;SDS011;19250;42.646;26.980;2023-01-28T12:47:38;18.38;;;15.02;;
12798;SDS011;19250;42.646;26.980;2023-01-28T12:50:12;23.20;;;16.00;;
12798;SDS011;19250;42.646;26.980;2023-01-28T12:52:44;17.30;;;13.15;;
12798;SDS011;19250;42.646;26.980;2023-01-28T12:55:16;14.77;;;12.03;;
12798;SDS011;19250;42.646;26.980;2023-01-28T12:57:46;21.75;;;14.43;;
12798;SDS011;19250;42.646;26.980;2023-01-28T13:00:18;18.65;;;13.98;;
12798;SDS011;19250;42.646;26.980;2023-01-28T13:02:51;14.85;;;10.70;;
12798;SDS011;19250;42.646;26.980;2023-01-28T13:05:30;20.70;;;14.32;;
12798;SDS011;19250;42.646;26.980;2023-01-28T13:08:03;13.63;;;10.73;;
12798;SDS011;19250;42.646;26.980;2023-01-28T13:10:39;17.77;;;12.37;;
12798;SDS011;19250;42.646;26.980;2023-01-28T13:13:09;23.20;;;16.20;;
12798;SDS011;19250;42.646;26.980;2023-01-28T13:15:43;20.33;;;14.45;;
12798;SDS011;19250;42.646;26.980;2023-01-28T13:20:58;15.67;;;12.00;;
12798;SDS011;19250;42.646;26.980;2023-01-28T13:23:27;19.95;;;14.13;;
12798;SDS011;19250;42.646;26.980;2023-01-28T13:26:11;18.20;;;13.43;;
12798;SDS011;19250;42.646;26.980;2023-01-28T13:29:05;16.55;;;14.25;;
12798;SDS011;19250;42.646;26.980;2023-01-28T13:31:38;40.70;;;33.40;;
12798;SDS011;19250;42.646;26.980;2023-01-28T13:34:08;46.20;;;33.33;;
12798;SDS011;19250;42.646;26.980;2023-01-28T13:36:55;17.77;;;14.50;;
12798;SDS011;19250;42.646;26.980;2023-01-28T13:39:24;18.38;;;12.35;;
12798;SDS011;19250;42.646;26.980;2023-01-28T13:41:53;25.83;;;16.45;;
12798;SDS011;19250;42.646;26.980;2023-01-28T13:44:33;37.53;;;20.98;;
12798;SDS011;19250;42.646;26.980;2023-01-28T13:47:11;28.95;;;19.02;;
12798;SDS011;19250;42.646;26.980;2023-01-28T13:49:42;28.58;;;20.13;;
12798;SDS011;19250;42.646;26.980;2023-01-28T13:52:14;35.95;;;21.63;;
12798;SDS011;19250;42.646;26.980;2023-01-28T13:54:47;61.13;;;34.37;;
12798;SDS011;19250;42.646;26.980;2023-01-28T14:00:35;24.13;;;17.33;;
12798;SDS011;19250;42.646;26.980;2023-01-28T14:09:32;13.55;;;10.45;;
12798;SDS011;19250;42.646;26.980;2023-01-28T14:18:06;13.77;;;9.73;;
12798;SDS011;19250;42.646;26.980;2023-01-28T14:20:46;15.98;;;12.35;;
12798;SDS011;19250;42.646;26.980;2023-01-28T14:23:14;14.00;;;10.43;;
12798;SDS011;19250;42.646;26.980;2023-01-28T14:25:48;17.55;;;14.45;;
12798;SDS011;19250;42.646;26.980;2023-01-28T14:28:30;16.70;;;12.43;;
12798;SDS011;19250;42.646;26.980;2023-01-28T14:31:09;19.40;;;15.23;;
12798;SDS011;19250;42.646;26.980;2023-01-28T14:33:40;13.75;;;11.05;;
12798;SDS011;19250;42.646;26.980;2023-01-28T14:36:09;11.82;;;10.30;;
12798;SDS011;19250;42.646;26.980;2023-01-28T14:38:38;10.50;;;8.90;;
12798;SDS011;19250;42.646;26.980;2023-01-28T14:41:13;16.38;;;12.18;;
12798;SDS011;19250;42.646;26.980;2023-01-28T14:43:49;16.77;;;13.30;;
12798;SDS011;19250;42.646;26.980;2023-01-28T14:46:19;31.07;;;22.20;;
12798;SDS011;19250;42.646;26.980;2023-01-28T14:48:57;14.10;;;11.20;;
12798;SDS011;19250;42.646;26.980;2023-01-28T14:51:44;16.40;;;14.03;;
12798;SDS011;19250;42.646;26.980;2023-01-28T14:54:32;18.92;;;16.27;;
12798;SDS011;19250;42.646;26.980;2023-01-28T14:59:59;16.88;;;14.23;;
12798;SDS011;19250;42.646;26.980;2023-01-28T15:02:27;22.03;;;16.23;;
12798;SDS011;19250;42.646;26.980;2023-01-28T15:05:06;21.03;;;15.40;;
12798;SDS011;19250;42.646;26.980;2023-01-28T15:07:34;24.50;;;16.77;;
12798;SDS011;19250;42.646;26.980;2023-01-28T15:10:02;21.35;;;16.15;;
12798;SDS011;19250;42.646;26.980;2023-01-28T15:12:33;20.95;;;16.88;;
12798;SDS011;19250;42.646;26.980;2023-01-28T15:15:09;18.43;;;14.80;;